Terminal Aerodrome Forecast
Issued by NWS Los Angeles, CA

Home | Current Version | Previous Version | Text Only | Print | Product List | Glossary On
Versions: 1 2 3 4 5 6 7 8 9 10 11 12 13 14 15 16 17 18 19 20 21
000
FTUS46 KLOX 241100
TAFSMX
TAF
KSMX 241136Z 2412/2512 VRB04KT P6SM SKC
     FM241600 32012KT P6SM SCT200
     FM242000 31020G30KT P6SM SCT200
     FM250200 32012KT P6SM SCT200
     FM250700 VRB03KT P6SM FEW200
     FM251000 VRB03KT P6SM BKN009 BKN200=

USA.gov is the U.S. government's official web portal to all federal, state and local government web resources and services.